Time;durP1;ratioP1;P1;durP2;ratioP2;P2;SDS_P1;SDS_P2;PMS_P1;PMS_P2;Temp;Humidity;BMP_temperature;BMP_pressure;BME280_temperature;BME280_humidity;BME280_pressure;Samples;Min_cycle;Max_cycle;Signal;HPM_P1;HPM_P2
2021/11/26 00:01:36;;;;;;;81.63;30.45;;;2.00;90.10;;;;;;5043310;28;20415;-74
2021/11/26 00:04:02;;;;;;;78.23;28.67;;;2.10;90.10;;;;;;5034701;28;20237;-75
2021/11/26 00:06:28;;;;;;;78.80;29.30;;;2.20;89.60;;;;;;5032490;28;20192;-73
2021/11/26 00:08:54;;;;;;;80.18;27.92;;;2.10;89.00;;;;;;5031545;28;20423;-76
2021/11/26 00:11:20;;;;;;;67.70;26.37;;;2.10;89.00;;;;;;5041023;28;20912;-74
2021/11/26 00:13:51;;;;;;;68.20;26.67;;;2.10;89.50;;;;;;5049231;28;20710;-74
2021/11/26 00:16:19;;;;;;;76.60;27.83;;;2.00;88.90;;;;;;5049214;28;20858;-75
2021/11/26 00:18:53;;;;;;;77.75;28.85;;;2.00;89.20;;;;;;5037388;28;20206;-75
2021/11/26 00:21:19;;;;;;;83.43;27.95;;;1.90;89.30;;;;;;5037257;28;20176;-74
2021/11/26 00:23:44;;;;;;;74.73;25.17;;;1.90;89.30;;;;;;5031176;28;20259;-74
2021/11/26 00:26:10;;;;;;;79.17;28.83;;;1.90;89.60;;;;;;5038155;28;20542;-75
2021/11/26 00:28:36;;;;;;;85.37;29.20;;;1.90;89.60;;;;;;5039978;28;20782;-75
2021/11/26 00:31:02;;;;;;;73.53;28.20;;;2.00;89.60;;;;;;5034906;28;20416;-74
2021/11/26 00:33:28;;;;;;;91.50;30.23;;;2.00;89.50;;;;;;5040902;28;20681;-73
2021/11/26 00:35:54;;;;;;;80.53;28.40;;;2.00;89.50;;;;;;5040342;28;20246;-74
2021/11/26 00:38:20;;;;;;;77.30;29.42;;;2.00;89.60;;;;;;5047236;28;20176;-74
2021/11/26 00:40:46;;;;;;;92.00;28.43;;;1.90;89.50;;;;;;5040926;28;20184;-76
2021/11/26 00:43:12;;;;;;;80.35;29.75;;;2.00;89.60;;;;;;5034132;28;20428;-75
2021/11/26 00:45:38;;;;;;;68.50;26.90;;;2.00;89.30;;;;;;5033140;28;20253;-74
2021/11/26 00:48:04;;;;;;;70.60;27.33;;;2.00;89.20;;;;;;5035499;28;20427;-75
2021/11/26 00:50:30;;;;;;;82.55;28.00;;;1.90;89.20;;;;;;5035779;28;20181;-75
2021/11/26 00:52:56;;;;;;;79.57;28.92;;;1.90;89.30;;;;;;5027676;28;20535;-75
2021/11/26 00:55:22;;;;;;;71.10;26.90;;;1.90;89.30;;;;;;5037342;28;20201;-74
2021/11/26 00:57:47;;;;;;;70.03;28.97;;;1.90;89.30;;;;;;5031033;28;20188;-73
2021/11/26 01:00:17;;;;;;;82.23;27.17;;;1.90;89.20;;;;;;5038451;28;20415;-74
2021/11/26 01:02:43;;;;;;;74.22;27.10;;;1.90;89.30;;;;;;5036777;28;20189;-74
2021/11/26 01:05:11;;;;;;;80.30;28.27;;;1.80;89.30;;;;;;5034434;28;20603;-75
2021/11/26 01:07:37;;;;;;;67.68;28.25;;;1.80;89.60;;;;;;5032855;28;20603;-75
2021/11/26 01:10:06;;;;;;;79.25;28.15;;;1.90;89.70;;;;;;5036653;28;20183;-74
2021/11/26 01:12:32;;;;;;;88.15;29.23;;;1.90;89.70;;;;;;5049587;28;20526;-76
2021/11/26 01:14:58;;;;;;;85.47;30.00;;;1.90;89.70;;;;;;5047430;28;20188;-75
2021/11/26 01:17:24;;;;;;;71.37;27.00;;;1.80;89.60;;;;;;5036923;28;20221;-74
2021/11/26 01:19:50;;;;;;;64.30;25.00;;;1.90;89.30;;;;;;5041183;28;20176;-75
2021/11/26 01:22:16;;;;;;;69.85;25.65;;;1.80;89.00;;;;;;5048906;28;21227;-75
2021/11/26 01:24:42;;;;;;;76.83;28.67;;;1.80;89.20;;;;;;5032965;28;20211;-75
2021/11/26 01:27:08;;;;;;;66.03;25.05;;;1.80;89.60;;;;;;5033541;28;20201;-76
2021/11/26 01:29:35;;;;;;;71.60;26.30;;;1.80;89.60;;;;;;5034938;28;20327;-74
2021/11/26 01:32:02;;;;;;;82.57;29.77;;;1.80;89.50;;;;;;5041386;28;20423;-74
2021/11/26 01:34:28;;;;;;;77.82;27.00;;;1.80;89.50;;;;;;5048451;28;20242;-74
2021/11/26 01:36:54;;;;;;;73.60;29.03;;;1.70;89.50;;;;;;5038337;28;20224;-75
2021/11/26 01:39:20;;;;;;;71.95;28.35;;;1.70;89.90;;;;;;5049804;28;20184;-75
2021/11/26 01:41:46;;;;;;;70.17;26.77;;;1.80;90.20;;;;;;5045851;28;20184;-75
2021/11/26 01:44:11;;;;;;;72.60;27.50;;;1.90;90.10;;;;;;5048968;28;20632;-74
2021/11/26 01:46:39;;;;;;;71.83;26.57;;;1.80;89.90;;;;;;5038848;28;20452;-76
2021/11/26 01:49:05;;;;;;;74.22;27.17;;;1.80;89.90;;;;;;5038428;28;20993;-75
2021/11/26 01:51:31;;;;;;;69.45;25.52;;;1.90;90.00;;;;;;5043162;28;20185;-75
2021/11/26 01:53:57;;;;;;;69.00;27.30;;;1.90;89.60;;;;;;5049006;28;20203;-75
2021/11/26 01:56:25;;;;;;;66.17;25.90;;;2.00;89.50;;;;;;5036860;28;20213;-74
2021/11/26 01:58:51;;;;;;;74.55;27.65;;;2.00;89.00;;;;;;5034562;28;20174;-74
2021/11/26 02:01:19;;;;;;;82.87;29.70;;;1.90;88.90;;;;;;5039622;28;20639;-75
2021/11/26 02:03:45;;;;;;;74.22;27.70;;;1.90;89.20;;;;;;5038748;28;20184;-76
2021/11/26 02:06:10;;;;;;;80.97;29.17;;;1.80;89.60;;;;;;5051569;28;20200;-74
2021/11/26 02:08:36;;;;;;;79.37;27.13;;;1.80;89.70;;;;;;5050544;28;20513;-74
2021/11/26 02:11:03;;;;;;;72.53;27.83;;;1.80;90.10;;;;;;5045220;28;20195;-75
2021/11/26 02:13:28;;;;;;;74.00;28.13;;;1.80;89.90;;;;;;5051673;28;20267;-76
2021/11/26 02:15:54;;;;;;;84.83;29.40;;;1.80;89.70;;;;;;5045108;28;20299;-75
2021/11/26 02:18:21;;;;;;;69.50;25.40;;;1.80;89.60;;;;;;5051829;28;20264;-76
2021/11/26 02:20:47;;;;;;;69.38;26.20;;;1.80;89.60;;;;;;5035243;28;20424;-77
2021/11/26 02:23:13;;;;;;;79.22;29.00;;;1.80;89.90;;;;;;5037306;28;20184;-77
2021/11/26 02:25:40;;;;;;;66.00;25.45;;;1.90;89.60;;;;;;5044610;28;20210;-75
2021/11/26 02:28:08;;;;;;;71.03;26.15;;;1.90;89.70;;;;;;5032767;28;20177;-75
2021/11/26 02:30:35;;;;;;;67.90;23.75;;;2.00;89.20;;;;;;5036330;28;21091;-74
2021/11/26 02:33:10;;;;;;;72.65;25.70;;;2.00;88.70;;;;;;5046118;28;20185;-75
2021/11/26 02:35:37;;;;;;;66.03;26.00;;;2.00;88.90;;;;;;5038167;28;20221;-75
2021/11/26 02:38:05;;;;;;;73.90;28.85;;;2.00;89.00;;;;;;5051136;28;20248;-75
2021/11/26 02:40:32;;;;;;;59.60;24.17;;;2.00;89.00;;;;;;5050592;28;20690;-74
2021/11/26 02:42:59;;;;;;;66.03;25.98;;;2.00;89.00;;;;;;5041784;28;20230;-75
2021/11/26 02:45:26;;;;;;;64.20;25.30;;;2.00;89.20;;;;;;5051487;28;20204;-76
2021/11/26 02:47:53;;;;;;;66.35;26.15;;;2.10;88.70;;;;;;5047518;28;20634;-77
2021/11/26 02:50:19;;;;;;;86.43;28.77;;;2.10;88.40;;;;;;5047727;28;20316;-74
2021/11/26 02:52:46;;;;;;;74.75;25.83;;;2.00;88.70;;;;;;5048307;28;20184;-75
2021/11/26 02:55:18;;;;;;;68.65;25.33;;;2.00;89.20;;;;;;5039338;28;20242;-76
2021/11/26 02:57:44;;;;;;;68.18;25.33;;;2.00;88.70;;;;;;5032756;28;20216;-75
2021/11/26 03:00:13;;;;;;;73.03;26.53;;;2.00;88.90;;;;;;5038069;28;20185;-75
2021/11/26 03:02:39;;;;;;;66.68;26.70;;;2.00;88.70;;;;;;5034381;28;20412;-77
2021/11/26 03:05:05;;;;;;;63.60;24.67;;;2.00;89.20;;;;;;5035511;28;20286;-75
2021/11/26 03:07:31;;;;;;;66.93;27.35;;;1.90;89.30;;;;;;5033275;28;20203;-74
2021/11/26 03:09:57;;;;;;;75.57;27.63;;;1.90;89.60;;;;;;5035914;28;20655;-76
2021/11/26 03:12:23;;;;;;;66.03;27.17;;;1.90;89.90;;;;;;5045414;28;20188;-75
2021/11/26 03:14:49;;;;;;;70.10;25.90;;;1.90;90.00;;;;;;5047700;28;20200;-76
2021/11/26 03:17:15;;;;;;;68.80;27.43;;;1.90;89.90;;;;;;5044082;28;20471;-75
2021/11/26 03:19:41;;;;;;;69.05;26.65;;;1.90;89.90;;;;;;5045031;28;21115;-76
2021/11/26 03:22:07;;;;;;;70.83;28.87;;;2.00;90.00;;;;;;5045120;28;20188;-76
2021/11/26 03:24:33;;;;;;;73.23;30.67;;;2.10;90.00;;;;;;5038711;28;20189;-76
2021/11/26 03:26:58;;;;;;;69.53;27.03;;;2.10;89.50;;;;;;5037077;28;20205;-76
2021/11/26 03:29:25;;;;;;;83.73;26.50;;;2.10;89.20;;;;;;5036360;28;20905;-76
2021/11/26 03:31:50;;;;;;;70.65;26.85;;;2.00;89.20;;;;;;5049358;28;20651;-75
2021/11/26 03:34:16;;;;;;;64.47;25.87;;;2.00;89.30;;;;;;5050595;28;20212;-75
2021/11/26 03:36:42;;;;;;;69.03;24.60;;;2.00;89.60;;;;;;5042523;28;20216;-76
2021/11/26 03:39:08;;;;;;;67.07;25.53;;;2.00;89.70;;;;;;5050372;28;20185;-75
2021/11/26 03:41:33;;;;;;;70.30;25.87;;;2.00;89.60;;;;;;5035055;28;20188;-74
2021/11/26 03:44:00;;;;;;;64.63;25.13;;;2.00;89.00;;;;;;5035571;28;20911;-75
2021/11/26 03:46:25;;;;;;;64.93;26.30;;;2.00;89.20;;;;;;5041057;28;20478;-74
2021/11/26 03:48:51;;;;;;;85.87;28.60;;;2.10;89.20;;;;;;5046855;28;20217;-76
2021/11/26 03:51:17;;;;;;;68.33;25.87;;;2.10;89.00;;;;;;5042273;28;20188;-75
2021/11/26 03:53:43;;;;;;;72.30;27.80;;;2.10;89.00;;;;;;5040775;28;20193;-75
2021/11/26 03:56:08;;;;;;;67.30;26.80;;;2.10;89.20;;;;;;5035679;28;21017;-75
2021/11/26 03:58:34;;;;;;;76.63;26.90;;;2.00;89.50;;;;;;5033750;28;20215;-74
2021/11/26 04:01:00;;;;;;;78.33;27.87;;;2.10;89.60;;;;;;5036775;28;20181;-75
2021/11/26 04:03:26;;;;;;;64.97;26.70;;;2.20;89.50;;;;;;5036200;28;20259;-76
2021/11/26 04:05:51;;;;;;;61.37;25.00;;;2.20;89.50;;;;;;5049373;28;20450;-75
2021/11/26 04:08:17;;;;;;;78.23;27.93;;;2.20;89.60;;;;;;5035489;28;20623;-75
2021/11/26 04:10:43;;;;;;;69.10;28.57;;;2.20;89.70;;;;;;5037762;28;20181;-77
2021/11/26 04:13:09;;;;;;;75.07;27.30;;;2.20;89.90;;;;;;5035957;28;20291;-76
2021/11/26 04:15:37;;;;;;;61.25;23.48;;;2.10;90.10;;;;;;5031064;28;20474;-74
2021/11/26 04:18:04;;;;;;;66.22;28.52;;;2.00;90.50;;;;;;5037404;28;20176;-75
2021/11/26 04:20:31;;;;;;;84.22;28.27;;;2.00;90.70;;;;;;5042225;28;20184;-75
2021/11/26 04:22:57;;;;;;;73.45;27.33;;;1.90;90.70;;;;;;5040662;28;20185;-75
2021/11/26 04:25:23;;;;;;;67.90;26.90;;;1.70;91.20;;;;;;5041874;28;20251;-75
2021/11/26 04:27:50;;;;;;;75.10;26.80;;;1.80;91.80;;;;;;5043414;28;20503;-75
2021/11/26 04:30:18;;;;;;;78.70;29.90;;;1.80;91.90;;;;;;5038156;28;20432;-74
2021/11/26 04:32:46;;;;;;;74.60;26.67;;;1.90;92.10;;;;;;5043102;28;20401;-75
2021/11/26 04:35:12;;;;;;;91.13;29.92;;;1.90;92.00;;;;;;5048314;28;20176;-74
2021/11/26 04:37:39;;;;;;;69.27;27.43;;;1.80;92.00;;;;;;5050359;28;20892;-77
2021/11/26 04:40:08;;;;;;;90.60;31.35;;;1.80;92.00;;;;;;5044628;28;20913;-74
2021/11/26 04:42:35;;;;;;;78.78;27.70;;;1.70;92.30;;;;;;5048820;28;20271;-76
2021/11/26 04:45:00;;;;;;;83.00;29.58;;;1.70;92.70;;;;;;5049361;28;20181;-76
2021/11/26 04:47:26;;;;;;;74.87;28.60;;;1.60;92.90;;;;;;5044310;28;20330;-75
2021/11/26 04:49:52;;;;;;;80.30;28.40;;;1.70;93.10;;;;;;5043751;28;20195;-74
2021/11/26 04:52:18;;;;;;;70.57;24.55;;;1.60;93.10;;;;;;5041737;28;20518;-74
2021/11/26 04:54:44;;;;;;;75.60;28.13;;;1.60;93.10;;;;;;5039429;28;20285;-78
2021/11/26 04:57:10;;;;;;;67.83;24.67;;;1.50;93.10;;;;;;5040847;28;20496;-76
2021/11/26 04:59:36;;;;;;;65.17;27.43;;;1.60;93.20;;;;;;5042210;28;20211;-75
2021/11/26 05:02:01;;;;;;;77.80;26.17;;;1.60;93.30;;;;;;5044784;28;20181;-75
2021/11/26 05:04:27;;;;;;;67.53;26.00;;;1.70;93.30;;;;;;5041815;28;20990;-74
2021/11/26 05:06:53;;;;;;;68.67;25.23;;;1.80;93.10;;;;;;5036514;28;20463;-75
2021/11/26 05:09:19;;;;;;;74.17;25.87;;;1.80;92.90;;;;;;5046302;28;20419;-77
2021/11/26 05:11:46;;;;;;;72.27;26.50;;;1.80;92.90;;;;;;5032001;28;20415;-75
2021/11/26 05:14:17;;;;;;;85.05;28.85;;;1.90;92.90;;;;;;5039893;28;20185;-76
2021/11/26 05:16:43;;;;;;;77.78;27.35;;;1.90;92.90;;;;;;5032864;28;20284;-77
2021/11/26 05:19:08;;;;;;;88.50;28.77;;;1.90;92.60;;;;;;5030207;28;21013;-74
2021/11/26 05:21:34;;;;;;;83.10;26.50;;;1.90;92.30;;;;;;5042377;28;21204;-76
2021/11/26 05:24:00;;;;;;;76.47;28.27;;;1.80;92.30;;;;;;5031376;28;20185;-76
2021/11/26 05:26:26;;;;;;;79.03;28.03;;;1.80;92.50;;;;;;5031196;28;20208;-76
2021/11/26 05:28:52;;;;;;;87.50;28.17;;;2.00;92.60;;;;;;5037326;28;20430;-77
2021/11/26 05:31:19;;;;;;;77.22;28.20;;;2.00;92.20;;;;;;5036983;28;20744;-76
2021/11/26 05:33:45;;;;;;;68.63;25.75;;;2.10;91.80;;;;;;5039028;28;20196;-77
2021/11/26 05:36:10;;;;;;;76.10;26.70;;;2.10;91.70;;;;;;5047671;28;20214;-78
2021/11/26 05:38:36;;;;;;;79.93;27.00;;;2.10;91.70;;;;;;5049019;28;20184;-75
2021/11/26 05:41:02;;;;;;;74.07;27.10;;;2.10;92.00;;;;;;5047352;28;20181;-75
2021/11/26 05:43:28;;;;;;;67.60;26.77;;;2.20;91.70;;;;;;5037056;28;20235;-75
2021/11/26 05:45:54;;;;;;;80.10;28.03;;;2.20;91.40;;;;;;5045776;28;20616;-77
2021/11/26 05:48:19;;;;;;;74.17;26.10;;;2.20;91.40;;;;;;5045903;28;20180;-75
2021/11/26 05:50:46;;;;;;;67.20;27.60;;;2.00;91.50;;;;;;5040093;28;20319;-77
2021/11/26 05:53:12;;;;;;;75.63;27.42;;;2.00;91.70;;;;;;5037404;28;20518;-77
2021/11/26 05:55:38;;;;;;;80.27;28.00;;;2.20;91.70;;;;;;5047456;28;20204;-76
2021/11/26 05:58:04;;;;;;;64.63;25.80;;;2.20;91.60;;;;;;5039117;28;21189;-76
2021/11/26 06:00:31;;;;;;;77.70;26.30;;;2.20;91.60;;;;;;5034341;28;20423;-75
2021/11/26 06:02:58;;;;;;;61.92;23.10;;;2.20;91.50;;;;;;5039591;28;20211;-75
2021/11/26 06:05:25;;;;;;;64.82;23.20;;;2.20;91.20;;;;;;5040339;28;20712;-77
2021/11/26 06:07:51;;;;;;;59.30;24.42;;;2.20;91.10;;;;;;5042661;28;20295;-76
2021/11/26 06:10:17;;;;;;;69.82;24.02;;;2.20;91.00;;;;;;5040034;28;20185;-77
2021/11/26 06:12:46;;;;;;;63.47;23.75;;;2.00;91.10;;;;;;5040836;28;20184;-76
2021/11/26 06:15:13;;;;;;;60.78;21.75;;;2.00;91.50;;;;;;5039783;28;20279;-75
2021/11/26 06:17:40;;;;;;;61.78;22.02;;;2.00;91.50;;;;;;5032302;28;20212;-76
2021/11/26 06:20:07;;;;;;;57.00;22.77;;;2.20;91.50;;;;;;5040923;28;20650;-74
2021/11/26 06:22:33;;;;;;;64.47;24.63;;;2.20;91.20;;;;;;5036890;28;20177;-75
2021/11/26 06:24:59;;;;;;;67.33;25.13;;;2.20;91.20;;;;;;5045933;28;20211;-75
2021/11/26 06:27:25;;;;;;;72.53;26.80;;;2.30;91.00;;;;;;5034418;28;20272;-76
2021/11/26 06:29:51;;;;;;;65.67;24.70;;;2.20;90.80;;;;;;5036077;28;20427;-76
2021/11/26 06:32:16;;;;;;;73.30;27.23;;;2.20;90.80;;;;;;5046417;28;20447;-74
2021/11/26 06:34:42;;;;;;;62.13;23.20;;;2.20;90.80;;;;;;5029915;28;20185;-75
2021/11/26 06:37:08;;;;;;;72.93;25.60;;;2.20;90.80;;;;;;5044498;28;20248;-75
2021/11/26 06:39:34;;;;;;;59.97;24.40;;;2.20;90.80;;;;;;5032485;28;20193;-76
2021/11/26 06:42:00;;;;;;;72.87;23.73;;;2.30;90.70;;;;;;5042907;28;20228;-74
2021/11/26 06:44:26;;;;;;;58.67;21.20;;;2.40;90.40;;;;;;5043048;28;20660;-76
2021/11/26 06:46:51;;;;;;;49.83;19.03;;;2.40;90.10;;;;;;5040922;28;20276;-75
2021/11/26 06:49:17;;;;;;;65.63;24.43;;;2.40;89.60;;;;;;5036303;28;20424;-75
2021/11/26 06:51:43;;;;;;;59.93;24.10;;;2.40;89.60;;;;;;5047843;28;20454;-76
2021/11/26 06:54:09;;;;;;;65.43;25.40;;;2.30;89.90;;;;;;5036617;28;20251;-76
2021/11/26 06:56:35;;;;;;;58.47;22.97;;;2.40;90.20;;;;;;5036119;28;20520;-76
2021/11/26 06:59:03;;;;;;;67.03;23.87;;;2.30;90.20;;;;;;5037717;28;20188;-77
2021/11/26 07:01:30;;;;;;;73.82;25.98;;;2.30;90.30;;;;;;5050984;28;20176;-75
2021/11/26 07:03:55;;;;;;;62.78;25.08;;;2.30;90.40;;;;;;5052464;28;20714;-77
2021/11/26 07:06:22;;;;;;;77.57;27.30;;;2.30;90.60;;;;;;5049725;28;20204;-75
2021/11/26 07:08:48;;;;;;;66.90;26.63;;;2.30;90.70;;;;;;5044683;28;21625;-74
2021/11/26 07:11:13;;;;;;;72.53;26.07;;;2.20;90.90;;;;;;5045735;28;20180;-76
2021/11/26 07:13:39;;;;;;;75.77;26.30;;;2.20;91.10;;;;;;5038092;28;20782;-75
2021/11/26 07:16:05;;;;;;;66.90;25.93;;;2.20;91.30;;;;;;5048416;28;20478;-76
2021/11/26 07:18:31;;;;;;;68.35;23.77;;;2.20;90.90;;;;;;5038147;28;20177;-75
2021/11/26 07:20:57;;;;;;;57.20;23.07;;;2.20;90.80;;;;;;5048568;28;20703;-76
2021/11/26 07:23:23;;;;;;;78.40;26.10;;;2.20;90.80;;;;;;5046330;28;20442;-75
2021/11/26 07:25:48;;;;;;;73.10;26.83;;;2.10;91.00;;;;;;5050241;28;20219;-75
2021/11/26 07:28:14;;;;;;;67.33;25.73;;;2.10;91.20;;;;;;5038470;28;20256;-75
2021/11/26 07:30:40;;;;;;;59.60;22.23;;;2.20;91.40;;;;;;5047091;28;20419;-77
2021/11/26 07:33:08;;;;;;;81.00;27.00;;;2.20;91.20;;;;;;5042217;28;20553;-77
2021/11/26 07:35:34;;;;;;;63.05;23.52;;;2.20;91.30;;;;;;5049234;28;20543;-74
2021/11/26 07:38:00;;;;;;;73.60;24.33;;;2.20;91.50;;;;;;5038851;28;20208;-74
2021/11/26 07:40:26;;;;;;;74.57;27.17;;;2.30;91.70;;;;;;5036647;28;20548;-75
2021/11/26 07:42:52;;;;;;;69.87;24.97;;;2.40;91.60;;;;;;5031209;28;20181;-75
2021/11/26 07:45:18;;;;;;;70.70;23.40;;;2.60;91.30;;;;;;5047762;28;20427;-75
2021/11/26 07:47:44;;;;;;;66.50;26.40;;;2.70;90.80;;;;;;5050555;28;20180;-75
2021/11/26 07:50:11;;;;;;;65.75;23.90;;;2.70;90.40;;;;;;5041896;28;20741;-75
2021/11/26 07:52:38;;;;;;;71.20;26.38;;;2.80;90.20;;;;;;5036478;28;20543;-77
2021/11/26 07:55:05;;;;;;;64.38;24.10;;;2.70;89.70;;;;;;5038315;28;20181;-78
2021/11/26 07:57:31;;;;;;;67.20;25.33;;;2.80;90.10;;;;;;5038620;28;20300;-74
2021/11/26 07:59:57;;;;;;;68.00;25.33;;;2.80;89.90;;;;;;5042656;28;20232;-75
2021/11/26 08:02:22;;;;;;;65.33;22.83;;;2.70;90.10;;;;;;5043192;28;20423;-77
2021/11/26 08:04:48;;;;;;;58.10;24.27;;;2.70;89.90;;;;;;5033890;28;20220;-76
2021/11/26 08:07:14;;;;;;;64.40;25.10;;;2.70;89.70;;;;;;5036408;28;20220;-75
2021/11/26 08:09:40;;;;;;;67.63;25.77;;;2.60;89.90;;;;;;5036243;28;20180;-75
2021/11/26 08:12:06;;;;;;;76.05;27.83;;;2.60;90.20;;;;;;5038091;28;20227;-76
2021/11/26 08:14:32;;;;;;;64.18;23.85;;;2.60;90.20;;;;;;5038426;28;20177;-77
2021/11/26 08:16:58;;;;;;;61.33;24.15;;;2.50;90.20;;;;;;5042452;28;20216;-77
2021/11/26 08:19:25;;;;;;;66.10;23.97;;;2.40;90.30;;;;;;5049902;28;20181;-78
2021/11/26 08:21:52;;;;;;;59.30;23.83;;;2.40;90.60;;;;;;5032489;28;20178;-77
2021/11/26 08:24:18;;;;;;;62.90;24.75;;;2.40;90.60;;;;;;5037894;28;20214;-77
2021/11/26 08:26:46;;;;;;;67.77;24.47;;;2.40;90.80;;;;;;5037150;28;20205;-77
2021/11/26 08:29:12;;;;;;;66.73;25.73;;;2.50;91.00;;;;;;5050813;28;20415;-76
2021/11/26 08:31:39;;;;;;;66.43;25.17;;;2.60;90.80;;;;;;5041743;28;21238;-77
2021/11/26 08:34:06;;;;;;;64.13;24.05;;;2.50;90.70;;;;;;5038665;28;20193;-76
2021/11/26 08:36:33;;;;;;;59.65;23.10;;;2.50;90.80;;;;;;5041962;28;20209;-76
2021/11/26 08:38:58;;;;;;;69.45;25.27;;;2.60;90.90;;;;;;5039079;28;20534;-75
2021/11/26 08:41:25;;;;;;;69.13;26.30;;;2.60;90.90;;;;;;5043507;28;20180;-76
2021/11/26 08:43:51;;;;;;;66.40;24.63;;;2.70;90.90;;;;;;5037027;28;20906;-75
2021/11/26 08:46:18;;;;;;;62.13;22.73;;;2.70;90.80;;;;;;5043230;28;20201;-76
2021/11/26 08:48:45;;;;;;;65.93;23.73;;;2.80;90.80;;;;;;5036532;28;20314;-77
2021/11/26 08:51:11;;;;;;;61.83;24.55;;;2.80;90.50;;;;;;5030245;28;20272;-75
2021/11/26 08:53:42;;;;;;;55.92;22.45;;;2.90;90.60;;;;;;5047946;28;20193;-76
2021/11/26 08:56:09;;;;;;;57.33;21.70;;;2.90;90.60;;;;;;5036754;28;20213;-76
2021/11/26 08:58:36;;;;;;;58.63;23.27;;;2.90;90.60;;;;;;5050840;28;20204;-74
2021/11/26 09:01:03;;;;;;;74.35;25.40;;;3.00;90.80;;;;;;5053759;28;20181;-75
2021/11/26 09:03:29;;;;;;;68.07;22.48;;;3.00;90.80;;;;;;5045663;28;20219;-75
2021/11/26 09:05:54;;;;;;;68.77;27.03;;;3.10;91.00;;;;;;5037361;28;20204;-75
2021/11/26 09:08:20;;;;;;;62.60;22.67;;;3.10;91.00;;;;;;5041479;28;20197;-75
2021/11/26 09:10:47;;;;;;;55.80;22.90;;;3.10;91.10;;;;;;5036417;28;20592;-75
2021/11/26 09:13:15;;;;;;;69.07;25.08;;;3.10;90.80;;;;;;5042679;28;20181;-77
2021/11/26 09:15:41;;;;;;;71.88;26.17;;;3.00;91.00;;;;;;5039998;28;20558;-76
2021/11/26 09:18:09;;;;;;;66.28;25.88;;;3.00;91.10;;;;;;5032709;28;20185;-77
2021/11/26 09:20:36;;;;;;;69.03;26.00;;;2.90;91.10;;;;;;5042804;28;20203;-76
2021/11/26 09:23:04;;;;;;;64.25;25.13;;;3.00;91.40;;;;;;5039540;28;20203;-75
2021/11/26 09:25:31;;;;;;;72.50;26.27;;;3.00;91.40;;;;;;5032978;28;20204;-77
2021/11/26 09:27:57;;;;;;;74.57;27.67;;;3.00;91.30;;;;;;5037278;28;20180;-77
2021/11/26 09:30:24;;;;;;;66.33;26.20;;;3.00;91.30;;;;;;5048801;28;20310;-76
2021/11/26 09:32:50;;;;;;;66.20;24.05;;;3.00;91.40;;;;;;5040567;28;20430;-76
2021/11/26 09:35:16;;;;;;;57.50;24.67;;;2.90;91.10;;;;;;5048264;28;20963;-77
2021/11/26 09:37:42;;;;;;;68.33;25.57;;;2.90;91.20;;;;;;5046546;28;20458;-75
2021/11/26 09:40:11;;;;;;;57.07;24.77;;;2.80;91.10;;;;;;5043357;28;20916;-76
2021/11/26 09:42:38;;;;;;;73.70;27.30;;;2.80;91.50;;;;;;5039668;28;20825;-76
2021/11/26 09:45:06;;;;;;;72.80;27.07;;;2.80;91.60;;;;;;5045083;28;20176;-78
2021/11/26 09:47:32;;;;;;;76.97;26.48;;;2.80;91.50;;;;;;5041807;28;21385;-75
2021/11/26 09:49:59;;;;;;;59.70;24.23;;;2.80;91.70;;;;;;5039735;28;20267;-75
2021/11/26 09:52:25;;;;;;;71.28;24.50;;;2.80;91.70;;;;;;5049225;28;20799;-75
2021/11/26 09:54:51;;;;;;;63.43;25.97;;;2.80;91.50;;;;;;5040647;28;20181;-76
2021/11/26 09:57:17;;;;;;;77.83;28.73;;;2.90;91.40;;;;;;5041463;28;20475;-76
2021/11/26 09:59:45;;;;;;;74.82;25.65;;;2.90;91.40;;;;;;5046446;28;20263;-76
2021/11/26 10:02:17;;;;;;;71.47;25.40;;;2.90;91.40;;;;;;5049428;28;20969;-76
2021/11/26 10:04:44;;;;;;;77.07;26.10;;;3.00;91.40;;;;;;5048918;28;20177;-75
2021/11/26 10:07:10;;;;;;;63.70;24.20;;;3.20;91.30;;;;;;5043253;28;20695;-76
2021/11/26 10:09:38;;;;;;;64.63;26.07;;;3.30;91.20;;;;;;5046206;28;20200;-78
2021/11/26 10:12:14;;;;;;;69.25;25.52;;;3.30;90.70;;;;;;5035936;28;20748;-77
2021/11/26 10:14:42;;;;;;;72.78;27.60;;;3.30;90.60;;;;;;5032813;28;20216;-76
2021/11/26 10:17:13;;;;;;;81.53;28.40;;;3.20;90.50;;;;;;5037852;28;20201;-76
2021/11/26 10:19:58;;;;;;;75.63;27.17;;;3.10;90.60;;;;;;5041654;28;20173;-76
2021/11/26 10:22:41;;;;;;;71.43;27.77;;;3.00;91.00;;;;;;5051829;28;20253;-79
2021/11/26 10:25:19;;;;;;;64.73;27.07;;;3.00;91.10;;;;;;5046146;28;20273;-77
2021/11/26 10:27:49;;;;;;;78.73;27.90;;;3.10;91.10;;;;;;5040415;28;20419;-79
2021/11/26 10:30:21;;;;;;;72.80;25.90;;;3.10;91.00;;;;;;5046179;28;20430;-76
2021/11/26 10:33:00;;;;;;;69.13;25.73;;;3.10;91.20;;;;;;5040361;28;20415;-75
2021/11/26 10:35:33;;;;;;;66.03;26.40;;;3.10;90.80;;;;;;5051148;28;20446;-75
2021/11/26 10:38:03;;;;;;;67.20;24.40;;;3.20;90.90;;;;;;5039710;28;20431;-76
2021/11/26 10:40:32;;;;;;;76.28;25.38;;;3.20;90.80;;;;;;5051103;28;20418;-77
2021/11/26 10:43:02;;;;;;;71.93;25.73;;;3.20;90.90;;;;;;5052332;28;20184;-75
2021/11/26 10:45:41;;;;;;;67.00;24.50;;;3.30;91.10;;;;;;5040515;28;20197;-76
2021/11/26 10:48:30;;;;;;;64.53;24.70;;;3.40;90.80;;;;;;5043258;28;20419;-75
2021/11/26 10:51:07;;;;;;;56.83;24.48;;;3.40;90.40;;;;;;5048360;28;20181;-77
2021/11/26 10:58:52;;;;;;;67.07;24.38;;;3.50;90.10;;;;;;5047124;28;20196;-78
2021/11/26 11:01:20;;;;;;;69.23;25.17;;;3.50;89.90;;;;;;5036926;28;20263;-75
2021/11/26 11:03:47;;;;;;;73.20;25.17;;;3.50;90.10;;;;;;5043356;28;20423;-76
2021/11/26 11:06:18;;;;;;;70.17;23.57;;;3.50;90.30;;;;;;5048818;28;20474;-78
2021/11/26 11:08:44;;;;;;;71.97;25.80;;;3.60;90.30;;;;;;5034872;28;20455;-77
2021/11/26 11:11:10;;;;;;;69.47;24.80;;;3.60;90.10;;;;;;5050800;28;20871;-74
2021/11/26 11:13:35;;;;;;;67.80;24.13;;;3.60;90.00;;;;;;5042405;28;20193;-77
2021/11/26 11:16:12;;;;;;;58.93;24.37;;;3.60;89.90;;;;;;5042114;28;20291;-75
2021/11/26 11:18:38;;;;;;;69.03;25.87;;;3.50;90.10;;;;;;5046524;28;20649;-75
2021/11/26 11:21:08;;;;;;;61.40;24.65;;;3.50;90.20;;;;;;5045768;28;20416;-76
2021/11/26 11:23:34;;;;;;;70.70;25.77;;;3.40;90.30;;;;;;5044448;28;20218;-75
2021/11/26 11:26:01;;;;;;;70.88;24.27;;;3.40;90.60;;;;;;5032282;28;20970;-75
2021/11/26 11:28:27;;;;;;;58.87;23.80;;;3.50;90.70;;;;;;5043581;28;20177;-76
2021/11/26 11:30:54;;;;;;;66.00;25.77;;;3.50;90.70;;;;;;5042636;28;20436;-75
2021/11/26 11:33:22;;;;;;;72.07;26.70;;;3.50;90.80;;;;;;5044236;28;20185;-75
2021/11/26 11:35:49;;;;;;;67.20;25.65;;;3.50;91.20;;;;;;5046721;28;20209;-76
2021/11/26 11:38:17;;;;;;;71.90;26.05;;;3.40;91.40;;;;;;5044843;28;20187;-75
2021/11/26 11:40:57;;;;;;;71.80;23.37;;;3.30;91.80;;;;;;5037778;28;20247;-76
2021/11/26 11:43:23;;;;;;;69.40;24.45;;;3.40;92.00;;;;;;5034029;28;20940;-76
2021/11/26 11:45:58;;;;;;;62.35;23.13;;;3.40;91.80;;;;;;5050534;28;20227;-76
2021/11/26 11:48:27;;;;;;;63.07;24.43;;;3.50;91.90;;;;;;5050484;28;20176;-76
2021/11/26 11:50:53;;;;;;;61.03;24.40;;;3.50;91.80;;;;;;5050331;28;20464;-77
2021/11/26 11:53:28;;;;;;;61.85;24.70;;;3.50;91.60;;;;;;5040173;28;20191;-77
2021/11/26 11:56:16;;;;;;;59.50;23.27;;;3.60;91.80;;;;;;5041746;28;20227;-76
2021/11/26 11:58:53;;;;;;;60.00;24.25;;;3.70;91.50;;;;;;5039401;28;20425;-78
2021/11/26 12:01:27;;;;;;;61.35;21.60;;;3.70;91.00;;;;;;5050900;28;20176;-75
2021/11/26 12:03:56;;;;;;;56.53;22.63;;;3.70;91.00;;;;;;5031568;28;20236;-76
2021/11/26 12:06:35;;;;;;;59.70;23.20;;;3.70;91.00;;;;;;5038267;28;20447;-77
2021/11/26 12:09:02;;;;;;;54.47;21.77;;;3.70;91.10;;;;;;5050520;28;20418;-77
2021/11/26 12:11:32;;;;;;;64.17;24.60;;;3.60;90.60;;;;;;5050997;28;20422;-76
2021/11/26 12:14:02;;;;;;;58.20;20.60;;;3.50;90.60;;;;;;5040691;28;20976;-76
2021/11/26 12:16:30;;;;;;;71.23;23.90;;;3.60;90.70;;;;;;5043074;28;20468;-76
2021/11/26 12:18:56;;;;;;;58.50;21.75;;;3.60;90.80;;;;;;5050002;28;20419;-76
2021/11/26 12:21:25;;;;;;;66.57;23.47;;;3.60;90.80;;;;;;5045391;28;20177;-77
2021/11/26 12:24:12;;;;;;;58.27;21.47;;;3.70;90.70;;;;;;5046491;28;20941;-76
2021/11/26 12:27:06;;;;;;;59.50;21.83;;;3.80;90.70;;;;;;5032251;28;20486;-77
2021/11/26 12:29:41;;;;;;;56.10;20.87;;;3.80;90.60;;;;;;5035916;28;20492;-77
2021/11/26 12:32:17;;;;;;;60.97;23.25;;;3.70;90.30;;;;;;5034840;28;20468;-79
2021/11/26 12:34:56;;;;;;;52.30;21.07;;;3.70;90.40;;;;;;5046737;28;20188;-76
2021/11/26 12:37:31;;;;;;;52.10;21.50;;;3.70;90.40;;;;;;5047520;28;21122;-78
2021/11/26 12:39:59;;;;;;;53.50;21.67;;;3.70;90.50;;;;;;5042681;28;20432;-77
2021/11/26 12:42:27;;;;;;;51.63;19.90;;;3.70;90.30;;;;;;5042254;28;20455;-76